sensor_id;sensor_type;location;lat;lon;timestamp;P1;durP1;ratioP1;P2;durP2;ratioP2
66020;SDS011;52789;59.980;30.346;2022-07-24T00:00:01;12.70;;;9.27;;
66020;SDS011;52789;59.980;30.346;2022-07-24T00:02:29;10.65;;;8.60;;
66020;SDS011;52789;59.980;30.346;2022-07-24T00:04:54;11.82;;;9.45;;
66020;SDS011;52789;59.980;30.346;2022-07-24T00:07:21;10.23;;;8.63;;
66020;SDS011;52789;59.980;30.346;2022-07-24T00:09:47;11.35;;;9.27;;
66020;SDS011;52789;59.980;30.346;2022-07-24T00:12:13;10.20;;;8.32;;
66020;SDS011;52789;59.980;30.346;2022-07-24T00:14:38;12.32;;;9.13;;
66020;SDS011;52789;59.980;30.346;2022-07-24T00:17:05;12.93;;;8.80;;
66020;SDS011;52789;59.980;30.346;2022-07-24T00:19:30;11.20;;;9.02;;
66020;SDS011;52789;59.980;30.346;2022-07-24T00:21:56;11.27;;;8.85;;
66020;SDS011;52789;59.980;30.346;2022-07-24T00:24:22;12.00;;;9.65;;
66020;SDS011;52789;59.980;30.346;2022-07-24T00:26:48;11.60;;;9.23;;
66020;SDS011;52789;59.980;30.346;2022-07-24T00:29:13;16.30;;;7.95;;
66020;SDS011;52789;59.980;30.346;2022-07-24T00:31:40;18.15;;;8.63;;
66020;SDS011;52789;59.980;30.346;2022-07-24T00:34:05;9.65;;;7.95;;
66020;SDS011;52789;59.980;30.346;2022-07-24T00:36:31;13.85;;;9.57;;
66020;SDS011;52789;59.980;30.346;2022-07-24T00:38:57;17.02;;;9.32;;
66020;SDS011;52789;59.980;30.346;2022-07-24T00:41:22;12.95;;;9.25;;
66020;SDS011;52789;59.980;30.346;2022-07-24T00:43:58;10.68;;;9.57;;
66020;SDS011;52789;59.980;30.346;2022-07-24T00:46:50;16.85;;;9.85;;
66020;SDS011;52789;59.980;30.346;2022-07-24T00:49:17;10.50;;;9.50;;
66020;SDS011;52789;59.980;30.346;2022-07-24T00:51:45;10.30;;;9.00;;
66020;SDS011;52789;59.980;30.346;2022-07-24T00:54:13;12.68;;;9.73;;
66020;SDS011;52789;59.980;30.346;2022-07-24T00:56:41;14.32;;;9.52;;
66020;SDS011;52789;59.980;30.346;2022-07-24T00:59:08;11.90;;;9.98;;
66020;SDS011;52789;59.980;30.346;2022-07-24T01:01:34;14.05;;;9.88;;
66020;SDS011;52789;59.980;30.346;2022-07-24T01:04:00;13.45;;;10.10;;
66020;SDS011;52789;59.980;30.346;2022-07-24T01:06:25;12.75;;;9.93;;
66020;SDS011;52789;59.980;30.346;2022-07-24T01:08:51;11.98;;;9.75;;
66020;SDS011;52789;59.980;30.346;2022-07-24T01:11:20;14.90;;;11.10;;
66020;SDS011;52789;59.980;30.346;2022-07-24T01:13:47;13.80;;;10.30;;
66020;SDS011;52789;59.980;30.346;2022-07-24T01:16:14;10.52;;;9.43;;
66020;SDS011;52789;59.980;30.346;2022-07-24T01:18:40;14.00;;;10.80;;
66020;SDS011;52789;59.980;30.346;2022-07-24T01:21:06;11.23;;;10.00;;
66020;SDS011;52789;59.980;30.346;2022-07-24T01:23:32;15.02;;;9.65;;
66020;SDS011;52789;59.980;30.346;2022-07-24T01:25:58;10.90;;;9.13;;
66020;SDS011;52789;59.980;30.346;2022-07-24T01:28:24;11.07;;;9.40;;
66020;SDS011;52789;59.980;30.346;2022-07-24T01:30:49;10.65;;;9.00;;
66020;SDS011;52789;59.980;30.346;2022-07-24T01:33:15;13.48;;;9.30;;
66020;SDS011;52789;59.980;30.346;2022-07-24T01:35:41;13.35;;;8.80;;
66020;SDS011;52789;59.980;30.346;2022-07-24T01:38:08;11.57;;;8.75;;
66020;SDS011;52789;59.980;30.346;2022-07-24T01:40:36;11.88;;;9.73;;
66020;SDS011;52789;59.980;30.346;2022-07-24T01:43:02;11.50;;;8.40;;
66020;SDS011;52789;59.980;30.346;2022-07-24T01:45:27;11.02;;;8.60;;
66020;SDS011;52789;59.980;30.346;2022-07-24T01:47:53;12.13;;;8.82;;
66020;SDS011;52789;59.980;30.346;2022-07-24T01:50:18;13.50;;;9.73;;
66020;SDS011;52789;59.980;30.346;2022-07-24T01:52:44;12.02;;;8.65;;
66020;SDS011;52789;59.980;30.346;2022-07-24T01:55:10;11.45;;;9.15;;
66020;SDS011;52789;59.980;30.346;2022-07-24T01:57:36;13.93;;;8.85;;
66020;SDS011;52789;59.980;30.346;2022-07-24T02:00:02;9.85;;;8.73;;
66020;SDS011;52789;59.980;30.346;2022-07-24T02:02:30;16.52;;;9.00;;
66020;SDS011;52789;59.980;30.346;2022-07-24T02:04:56;10.90;;;8.65;;
66020;SDS011;52789;59.980;30.346;2022-07-24T02:07:21;13.85;;;8.68;;
66020;SDS011;52789;59.980;30.346;2022-07-24T02:09:47;10.77;;;9.57;;
66020;SDS011;52789;59.980;30.346;2022-07-24T02:12:12;12.95;;;9.95;;
66020;SDS011;52789;59.980;30.346;2022-07-24T02:14:38;18.58;;;9.93;;
66020;SDS011;52789;59.980;30.346;2022-07-24T02:17:03;11.82;;;9.82;;
66020;SDS011;52789;59.980;30.346;2022-07-24T02:19:54;11.25;;;8.50;;
66020;SDS011;52789;59.980;30.346;2022-07-24T02:22:20;11.75;;;8.32;;
66020;SDS011;52789;59.980;30.346;2022-07-24T02:24:45;15.18;;;8.80;;
66020;SDS011;52789;59.980;30.346;2022-07-24T02:27:11;9.68;;;8.38;;
66020;SDS011;52789;59.980;30.346;2022-07-24T02:29:36;10.82;;;8.15;;
66020;SDS011;52789;59.980;30.346;2022-07-24T02:32:02;11.63;;;8.23;;
66020;SDS011;52789;59.980;30.346;2022-07-24T02:34:28;9.90;;;7.97;;
66020;SDS011;52789;59.980;30.346;2022-07-24T02:36:53;9.48;;;7.72;;
66020;SDS011;52789;59.980;30.346;2022-07-24T02:39:19;10.20;;;8.50;;
66020;SDS011;52789;59.980;30.346;2022-07-24T02:41:44;11.35;;;8.52;;
66020;SDS011;52789;59.980;30.346;2022-07-24T02:44:10;10.27;;;8.40;;
66020;SDS011;52789;59.980;30.346;2022-07-24T02:46:36;11.00;;;8.20;;
66020;SDS011;52789;59.980;30.346;2022-07-24T02:49:02;12.57;;;9.13;;
66020;SDS011;52789;59.980;30.346;2022-07-24T02:51:27;9.95;;;8.52;;
66020;SDS011;52789;59.980;30.346;2022-07-24T02:53:53;12.45;;;7.55;;
66020;SDS011;52789;59.980;30.346;2022-07-24T02:56:19;11.20;;;8.75;;
66020;SDS011;52789;59.980;30.346;2022-07-24T02:58:44;10.50;;;7.85;;
66020;SDS011;52789;59.980;30.346;2022-07-24T03:01:09;11.77;;;8.70;;
66020;SDS011;52789;59.980;30.346;2022-07-24T03:03:35;10.15;;;8.20;;
66020;SDS011;52789;59.980;30.346;2022-07-24T03:06:00;13.10;;;8.68;;
66020;SDS011;52789;59.980;30.346;2022-07-24T03:08:26;12.35;;;8.10;;
66020;SDS011;52789;59.980;30.346;2022-07-24T03:10:51;10.85;;;7.90;;
66020;SDS011;52789;59.980;30.346;2022-07-24T03:13:17;12.32;;;7.82;;
66020;SDS011;52789;59.980;30.346;2022-07-24T03:15:42;10.82;;;8.27;;
66020;SDS011;52789;59.980;30.346;2022-07-24T03:18:08;8.43;;;7.45;;
66020;SDS011;52789;59.980;30.346;2022-07-24T03:20:35;9.77;;;7.32;;
66020;SDS011;52789;59.980;30.346;2022-07-24T03:23:01;10.13;;;7.18;;
66020;SDS011;52789;59.980;30.346;2022-07-24T03:25:26;8.63;;;6.80;;
66020;SDS011;52789;59.980;30.346;2022-07-24T03:27:52;10.25;;;6.70;;
66020;SDS011;52789;59.980;30.346;2022-07-24T03:30:18;8.82;;;6.55;;
66020;SDS011;52789;59.980;30.346;2022-07-24T03:32:44;10.10;;;6.70;;
66020;SDS011;52789;59.980;30.346;2022-07-24T03:35:10;8.98;;;5.82;;
66020;SDS011;52789;59.980;30.346;2022-07-24T03:37:36;7.30;;;5.53;;
66020;SDS011;52789;59.980;30.346;2022-07-24T03:40:03;7.25;;;5.97;;
66020;SDS011;52789;59.980;30.346;2022-07-24T03:42:29;8.20;;;6.10;;
66020;SDS011;52789;59.980;30.346;2022-07-24T03:44:55;7.47;;;6.43;;
66020;SDS011;52789;59.980;30.346;2022-07-24T03:47:20;10.50;;;7.35;;
66020;SDS011;52789;59.980;30.346;2022-07-24T03:49:46;10.07;;;7.65;;
66020;SDS011;52789;59.980;30.346;2022-07-24T03:52:11;7.72;;;7.03;;
66020;SDS011;52789;59.980;30.346;2022-07-24T03:54:37;9.45;;;6.53;;
66020;SDS011;52789;59.980;30.346;2022-07-24T03:57:02;11.35;;;6.68;;
66020;SDS011;52789;59.980;30.346;2022-07-24T03:59:28;8.80;;;6.25;;
66020;SDS011;52789;59.980;30.346;2022-07-24T04:01:54;9.70;;;6.63;;
66020;SDS011;52789;59.980;30.346;2022-07-24T04:04:21;9.80;;;6.57;;
66020;SDS011;52789;59.980;30.346;2022-07-24T04:06:47;8.00;;;5.75;;
66020;SDS011;52789;59.980;30.346;2022-07-24T04:09:12;8.85;;;6.35;;
66020;SDS011;52789;59.980;30.346;2022-07-24T04:11:38;11.90;;;7.03;;
66020;SDS011;52789;59.980;30.346;2022-07-24T04:14:04;8.52;;;6.40;;
66020;SDS011;52789;59.980;30.346;2022-07-24T04:16:29;8.35;;;7.10;;
66020;SDS011;52789;59.980;30.346;2022-07-24T04:18:55;10.88;;;6.65;;
66020;SDS011;52789;59.980;30.346;2022-07-24T04:21:21;9.57;;;5.97;;
66020;SDS011;52789;59.980;30.346;2022-07-24T04:23:47;6.30;;;5.43;;
66020;SDS011;52789;59.980;30.346;2022-07-24T04:26:12;6.32;;;5.00;;
66020;SDS011;52789;59.980;30.346;2022-07-24T04:28:38;9.75;;;6.22;;
66020;SDS011;52789;59.980;30.346;2022-07-24T04:31:04;6.57;;;5.30;;
66020;SDS011;52789;59.980;30.346;2022-07-24T04:33:29;5.80;;;5.20;;
66020;SDS011;52789;59.980;30.346;2022-07-24T04:35:55;7.88;;;5.28;;
66020;SDS011;52789;59.980;30.346;2022-07-24T04:38:23;6.93;;;6.18;;
66020;SDS011;52789;59.980;30.346;2022-07-24T04:40:48;6.00;;;5.40;;
66020;SDS011;52789;59.980;30.346;2022-07-24T04:43:14;10.27;;;6.20;;
66020;SDS011;52789;59.980;30.346;2022-07-24T04:45:39;8.73;;;5.88;;
66020;SDS011;52789;59.980;30.346;2022-07-24T04:48:05;7.85;;;5.43;;
66020;SDS011;52789;59.980;30.346;2022-07-24T04:50:31;7.05;;;5.20;;
66020;SDS011;52789;59.980;30.346;2022-07-24T04:52:56;9.05;;;6.22;;
66020;SDS011;52789;59.980;30.346;2022-07-24T04:55:22;8.50;;;5.93;;
66020;SDS011;52789;59.980;30.346;2022-07-24T04:57:47;10.10;;;6.07;;
66020;SDS011;52789;59.980;30.346;2022-07-24T05:00:13;6.50;;;5.72;;
66020;SDS011;52789;59.980;30.346;2022-07-24T05:02:39;6.35;;;5.53;;
66020;SDS011;52789;59.980;30.346;2022-07-24T05:05:05;7.65;;;5.93;;
66020;SDS011;52789;59.980;30.346;2022-07-24T05:07:31;7.68;;;5.63;;
66020;SDS011;52789;59.980;30.346;2022-07-24T05:09:57;6.30;;;4.80;;
66020;SDS011;52789;59.980;30.346;2022-07-24T05:12:23;7.03;;;5.78;;
66020;SDS011;52789;59.980;30.346;2022-07-24T05:14:48;6.70;;;5.20;;
66020;SDS011;52789;59.980;30.346;2022-07-24T05:17:14;8.07;;;5.90;;
66020;SDS011;52789;59.980;30.346;2022-07-24T05:19:40;8.32;;;5.40;;
66020;SDS011;52789;59.980;30.346;2022-07-24T05:22:06;6.35;;;5.45;;
66020;SDS011;52789;59.980;30.346;2022-07-24T05:24:31;6.85;;;5.70;;
66020;SDS011;52789;59.980;30.346;2022-07-24T05:26:57;8.32;;;6.18;;
66020;SDS011;52789;59.980;30.346;2022-07-24T05:29:22;10.57;;;5.68;;
66020;SDS011;52789;59.980;30.346;2022-07-24T05:31:50;8.05;;;6.18;;
66020;SDS011;52789;59.980;30.346;2022-07-24T05:34:20;8.15;;;5.43;;
66020;SDS011;52789;59.980;30.346;2022-07-24T05:36:46;11.15;;;6.38;;
66020;SDS011;52789;59.980;30.346;2022-07-24T05:39:12;8.55;;;6.05;;
66020;SDS011;52789;59.980;30.346;2022-07-24T05:41:38;7.72;;;5.80;;
66020;SDS011;52789;59.980;30.346;2022-07-24T05:44:04;9.15;;;6.40;;
66020;SDS011;52789;59.980;30.346;2022-07-24T05:46:31;7.70;;;6.18;;
66020;SDS011;52789;59.980;30.346;2022-07-24T05:48:56;6.13;;;5.20;;
66020;SDS011;52789;59.980;30.346;2022-07-24T05:51:22;7.53;;;5.60;;
66020;SDS011;52789;59.980;30.346;2022-07-24T05:53:48;8.13;;;5.80;;
66020;SDS011;52789;59.980;30.346;2022-07-24T05:56:14;9.68;;;6.45;;
66020;SDS011;52789;59.980;30.346;2022-07-24T05:58:39;7.00;;;6.22;;
66020;SDS011;52789;59.980;30.346;2022-07-24T06:01:05;8.15;;;5.75;;
66020;SDS011;52789;59.980;30.346;2022-07-24T06:03:30;9.68;;;6.45;;
66020;SDS011;52789;59.980;30.346;2022-07-24T06:05:56;9.38;;;6.30;;
66020;SDS011;52789;59.980;30.346;2022-07-24T06:08:22;6.97;;;5.78;;
66020;SDS011;52789;59.980;30.346;2022-07-24T06:10:47;10.80;;;6.85;;
66020;SDS011;52789;59.980;30.346;2022-07-24T06:13:13;13.73;;;7.63;;
66020;SDS011;52789;59.980;30.346;2022-07-24T06:15:38;6.82;;;5.60;;
66020;SDS011;52789;59.980;30.346;2022-07-24T06:18:04;6.88;;;5.97;;
66020;SDS011;52789;59.980;30.346;2022-07-24T06:20:29;8.75;;;5.32;;
66020;SDS011;52789;59.980;30.346;2022-07-24T06:22:55;10.38;;;5.72;;
66020;SDS011;52789;59.980;30.346;2022-07-24T06:25:20;8.13;;;4.97;;
66020;SDS011;52789;59.980;30.346;2022-07-24T06:27:49;6.70;;;5.43;;
66020;SDS011;52789;59.980;30.346;2022-07-24T06:30:16;10.80;;;6.07;;
66020;SDS011;52789;59.980;30.346;2022-07-24T06:32:46;7.63;;;5.65;;
66020;SDS011;52789;59.980;30.346;2022-07-24T06:35:13;6.97;;;5.20;;
66020;SDS011;52789;59.980;30.346;2022-07-24T06:37:40;7.50;;;5.10;;
66020;SDS011;52789;59.980;30.346;2022-07-24T06:40:08;7.72;;;4.68;;
66020;SDS011;52789;59.980;30.346;2022-07-24T06:42:35;6.82;;;4.68;;
66020;SDS011;52789;59.980;30.346;2022-07-24T06:45:01;6.57;;;5.00;;
66020;SDS011;52789;59.980;30.346;2022-07-24T06:47:28;7.18;;;4.47;;
66020;SDS011;52789;59.980;30.346;2022-07-24T06:49:54;5.90;;;4.70;;
66020;SDS011;52789;59.980;30.346;2022-07-24T06:52:20;7.13;;;4.55;;
66020;SDS011;52789;59.980;30.346;2022-07-24T06:54:45;6.50;;;4.20;;
66020;SDS011;52789;59.980;30.346;2022-07-24T06:57:11;7.22;;;4.28;;
66020;SDS011;52789;59.980;30.346;2022-07-24T06:59:37;5.57;;;4.30;;
66020;SDS011;52789;59.980;30.346;2022-07-24T07:02:02;6.20;;;3.97;;
66020;SDS011;52789;59.980;30.346;2022-07-24T07:04:28;5.38;;;3.92;;
66020;SDS011;52789;59.980;30.346;2022-07-24T07:06:53;9.23;;;4.90;;
66020;SDS011;52789;59.980;30.346;2022-07-24T07:09:19;8.10;;;4.55;;
66020;SDS011;52789;59.980;30.346;2022-07-24T07:11:44;6.82;;;4.50;;
66020;SDS011;52789;59.980;30.346;2022-07-24T07:14:10;8.20;;;4.47;;
66020;SDS011;52789;59.980;30.346;2022-07-24T07:16:35;7.72;;;3.92;;
66020;SDS011;52789;59.980;30.346;2022-07-24T07:19:01;9.55;;;4.18;;
66020;SDS011;52789;59.980;30.346;2022-07-24T07:21:26;9.30;;;5.07;;
66020;SDS011;52789;59.980;30.346;2022-07-24T07:23:52;12.13;;;5.13;;
66020;SDS011;52789;59.980;30.346;2022-07-24T07:26:18;8.68;;;4.63;;
66020;SDS011;52789;59.980;30.346;2022-07-24T07:28:44;9.13;;;5.00;;
66020;SDS011;52789;59.980;30.346;2022-07-24T07:31:09;11.55;;;5.03;;
66020;SDS011;52789;59.980;30.346;2022-07-24T07:33:35;16.45;;;8.23;;
66020;SDS011;52789;59.980;30.346;2022-07-24T07:36:00;13.52;;;5.82;;
66020;SDS011;52789;59.980;30.346;2022-07-24T07:38:27;13.07;;;5.50;;
66020;SDS011;52789;59.980;30.346;2022-07-24T07:40:56;11.63;;;4.82;;
66020;SDS011;52789;59.980;30.346;2022-07-24T07:43:21;15.93;;;5.63;;
66020;SDS011;52789;59.980;30.346;2022-07-24T07:45:47;8.43;;;5.18;;
66020;SDS011;52789;59.980;30.346;2022-07-24T07:48:12;13.98;;;7.35;;
66020;SDS011;52789;59.980;30.346;2022-07-24T07:50:38;9.10;;;5.43;;
66020;SDS011;52789;59.980;30.346;2022-07-24T07:53:03;13.55;;;6.00;;
66020;SDS011;52789;59.980;30.346;2022-07-24T07:55:29;9.82;;;5.97;;
66020;SDS011;52789;59.980;30.346;2022-07-24T07:57:54;32.17;;;9.80;;
66020;SDS011;52789;59.980;30.346;2022-07-24T08:00:20;29.48;;;11.02;;
66020;SDS011;52789;59.980;30.346;2022-07-24T08:02:48;13.35;;;6.05;;
66020;SDS011;52789;59.980;30.346;2022-07-24T08:05:14;10.82;;;5.35;;
66020;SDS011;52789;59.980;30.346;2022-07-24T08:07:39;6.32;;;5.10;;
66020;SDS011;52789;59.980;30.346;2022-07-24T08:10:05;15.23;;;6.40;;
66020;SDS011;52789;59.980;30.346;2022-07-24T08:12:31;9.23;;;6.25;;
66020;SDS011;52789;59.980;30.346;2022-07-24T08:14:57;12.52;;;5.57;;
66020;SDS011;52789;59.980;30.346;2022-07-24T08:17:22;12.02;;;6.10;;
66020;SDS011;52789;59.980;30.346;2022-07-24T08:19:49;16.42;;;8.05;;
66020;SDS011;52789;59.980;30.346;2022-07-24T08:22:15;8.98;;;5.45;;
66020;SDS011;52789;59.980;30.346;2022-07-24T08:24:40;20.90;;;6.35;;
66020;SDS011;52789;59.980;30.346;2022-07-24T08:27:06;21.00;;;7.28;;
66020;SDS011;52789;59.980;30.346;2022-07-24T08:29:32;7.47;;;5.30;;
66020;SDS011;52789;59.980;30.346;2022-07-24T08:31:57;11.07;;;6.00;;
66020;SDS011;52789;59.980;30.346;2022-07-24T08:34:23;22.95;;;7.72;;
66020;SDS011;52789;59.980;30.346;2022-07-24T08:36:49;20.75;;;6.82;;
66020;SDS011;52789;59.980;30.346;2022-07-24T08:39:15;10.93;;;6.03;;
66020;SDS011;52789;59.980;30.346;2022-07-24T08:41:42;8.85;;;5.65;;
66020;SDS011;52789;59.980;30.346;2022-07-24T08:44:08;11.55;;;5.60;;
66020;SDS011;52789;59.980;30.346;2022-07-24T08:46:38;7.85;;;5.50;;
66020;SDS011;52789;59.980;30.346;2022-07-24T08:49:14;12.05;;;5.38;;
66020;SDS011;52789;59.980;30.346;2022-07-24T08:52:15;9.02;;;5.63;;
66020;SDS011;52789;59.980;30.346;2022-07-24T08:54:43;8.73;;;5.50;;
66020;SDS011;52789;59.980;30.346;2022-07-24T08:57:08;9.50;;;5.63;;
66020;SDS011;52789;59.980;30.346;2022-07-24T08:59:34;14.82;;;6.97;;
66020;SDS011;52789;59.980;30.346;2022-07-24T09:02:00;14.45;;;6.10;;
66020;SDS011;52789;59.980;30.346;2022-07-24T09:09:37;11.05;;;5.35;;
66020;SDS011;52789;59.980;30.346;2022-07-24T09:14:30;9.95;;;4.03;;
66020;SDS011;52789;59.980;30.346;2022-07-24T09:17:02;8.80;;;4.55;;
66020;SDS011;52789;59.980;30.346;2022-07-24T09:19:29;18.73;;;5.90;;
66020;SDS011;52789;59.980;30.346;2022-07-24T09:21:56;22.58;;;6.32;;
66020;SDS011;52789;59.980;30.346;2022-07-24T09:24:22;16.00;;;4.90;;
66020;SDS011;52789;59.980;30.346;2022-07-24T09:26:50;20.13;;;7.07;;
66020;SDS011;52789;59.980;30.346;2022-07-24T09:29:16;14.18;;;4.63;;
66020;SDS011;52789;59.980;30.346;2022-07-24T09:32:02;13.15;;;5.80;;
66020;SDS011;52789;59.980;30.346;2022-07-24T09:34:28;11.35;;;3.70;;
66020;SDS011;52789;59.980;30.346;2022-07-24T09:37:02;12.15;;;4.60;;
66020;SDS011;52789;59.980;30.346;2022-07-24T09:39:30;8.80;;;5.43;;
66020;SDS011;52789;59.980;30.346;2022-07-24T09:42:03;7.28;;;4.28;;
66020;SDS011;52789;59.980;30.346;2022-07-24T09:44:31;5.57;;;3.50;;
66020;SDS011;52789;59.980;30.346;2022-07-24T09:49:27;6.03;;;3.88;;
66020;SDS011;52789;59.980;30.346;2022-07-24T09:57:15;8.68;;;3.88;;
66020;SDS011;52789;59.980;30.346;2022-07-24T09:59:54;5.88;;;4.00;;
66020;SDS011;52789;59.980;30.346;2022-07-24T10:02:28;7.13;;;4.55;;
66020;SDS011;52789;59.980;30.346;2022-07-24T10:04:55;7.47;;;4.82;;
66020;SDS011;52789;59.980;30.346;2022-07-24T10:07:23;5.55;;;4.88;;
66020;SDS011;52789;59.980;30.346;2022-07-24T10:09:51;6.43;;;4.77;;
66020;SDS011;52789;59.980;30.346;2022-07-24T10:12:22;6.90;;;4.57;;
66020;SDS011;52789;59.980;30.346;2022-07-24T10:14:50;4.13;;;3.55;;
66020;SDS011;52789;59.980;30.346;2022-07-24T10:17:18;11.32;;;4.22;;
66020;SDS011;52789;59.980;30.346;2022-07-24T10:19:48;5.47;;;4.20;;
66020;SDS011;52789;59.980;30.346;2022-07-24T10:22:19;6.63;;;3.97;;
66020;SDS011;52789;59.980;30.346;2022-07-24T10:27:23;6.05;;;5.38;;
66020;SDS011;52789;59.980;30.346;2022-07-24T10:30:16;5.45;;;4.60;;
66020;SDS011;52789;59.980;30.346;2022-07-24T10:32:41;5.82;;;4.03;;
66020;SDS011;52789;59.980;30.346;2022-07-24T10:35:16;12.43;;;5.47;;
66020;SDS011;52789;59.980;30.346;2022-07-24T10:46:13;7.43;;;4.38;;
66020;SDS011;52789;59.980;30.346;2022-07-24T10:51:18;5.35;;;4.15;;
66020;SDS011;52789;59.980;30.346;2022-07-24T10:53:45;16.98;;;6.45;;
66020;SDS011;52789;59.980;30.346;2022-07-24T11:01:36;9.40;;;4.68;;
66020;SDS011;52789;59.980;30.346;2022-07-24T11:06:47;7.53;;;4.30;;
66020;SDS011;52789;59.980;30.346;2022-07-24T11:09:18;5.85;;;4.20;;
66020;SDS011;52789;59.980;30.346;2022-07-24T11:15:03;5.95;;;3.90;;
66020;SDS011;52789;59.980;30.346;2022-07-24T11:20:08;5.90;;;3.60;;
66020;SDS011;52789;59.980;30.346;2022-07-24T11:25:10;6.03;;;3.45;;
66020;SDS011;52789;59.980;30.346;2022-07-24T11:27:44;6.00;;;3.45;;
66020;SDS011;52789;59.980;30.346;2022-07-24T11:30:27;4.88;;;3.67;;
66020;SDS011;52789;59.980;30.346;2022-07-24T11:32:55;4.88;;;3.72;;
66020;SDS011;52789;59.980;30.346;2022-07-24T11:35:31;7.22;;;3.35;;
66020;SDS011;52789;59.980;30.346;2022-07-24T11:37:59;4.88;;;3.63;;
66020;SDS011;52789;59.980;30.346;2022-07-24T11:40:27;6.60;;;3.45;;
66020;SDS011;52789;59.980;30.346;2022-07-24T11:42:56;7.10;;;4.60;;
66020;SDS011;52789;59.980;30.346;2022-07-24T11:45:23;9.10;;;4.13;;
66020;SDS011;52789;59.980;30.346;2022-07-24T11:47:49;4.60;;;3.88;;
66020;SDS011;52789;59.980;30.346;2022-07-24T11:50:20;3.97;;;3.40;;
66020;SDS011;52789;59.980;30.346;2022-07-24T11:52:47;11.25;;;4.10;;
66020;SDS011;52789;59.980;30.346;2022-07-24T11:55:15;5.28;;;3.60;;
66020;SDS011;52789;59.980;30.346;2022-07-24T11:57:43;6.18;;;3.47;;
66020;SDS011;52789;59.980;30.346;2022-07-24T12:00:19;7.05;;;2.97;;
66020;SDS011;52789;59.980;30.346;2022-07-24T12:02:47;7.20;;;3.30;;
66020;SDS011;52789;59.980;30.346;2022-07-24T12:05:22;4.63;;;2.97;;
66020;SDS011;52789;59.980;30.346;2022-07-24T12:10:19;4.97;;;3.38;;
66020;SDS011;52789;59.980;30.346;2022-07-24T12:12:46;5.05;;;3.35;;
66020;SDS011;52789;59.980;30.346;2022-07-24T12:15:14;11.25;;;4.38;;
66020;SDS011;52789;59.980;30.346;2022-07-24T12:18:00;9.93;;;3.78;;
66020;SDS011;52789;59.980;30.346;2022-07-24T12:20:31;10.48;;;4.47;;
66020;SDS011;52789;59.980;30.346;2022-07-24T12:25:25;5.60;;;4.32;;
66020;SDS011;52789;59.980;30.346;2022-07-24T12:28:02;4.18;;;3.03;;
66020;SDS011;52789;59.980;30.346;2022-07-24T12:30:33;8.80;;;4.20;;
66020;SDS011;52789;59.980;30.346;2022-07-24T12:33:07;12.27;;;3.75;;
66020;SDS011;52789;59.980;30.346;2022-07-24T12:38:29;9.23;;;4.10;;
66020;SDS011;52789;59.980;30.346;2022-07-24T12:41:21;11.45;;;4.07;;
66020;SDS011;52789;59.980;30.346;2022-07-24T12:43:51;7.50;;;4.45;;
66020;SDS011;52789;59.980;30.346;2022-07-24T12:49:07;10.68;;;3.95;;
66020;SDS011;52789;59.980;30.346;2022-07-24T12:54:29;10.18;;;3.63;;
66020;SDS011;52789;59.980;30.346;2022-07-24T12:56:57;10.73;;;3.92;;
66020;SDS011;52789;59.980;30.346;2022-07-24T13:01:58;5.18;;;3.58;;
66020;SDS011;52789;59.980;30.346;2022-07-24T13:04:28;3.60;;;3.10;;
66020;SDS011;52789;59.980;30.346;2022-07-24T13:06:58;5.07;;;3.47;;
66020;SDS011;52789;59.980;30.346;2022-07-24T13:09:24;7.63;;;3.75;;
66020;SDS011;52789;59.980;30.346;2022-07-24T13:11:52;8.07;;;4.03;;
66020;SDS011;52789;59.980;30.346;2022-07-24T13:16:47;6.95;;;3.75;;
66020;SDS011;52789;59.980;30.346;2022-07-24T13:19:14;9.07;;;3.90;;
66020;SDS011;52789;59.980;30.346;2022-07-24T13:21:40;7.80;;;3.83;;
66020;SDS011;52789;59.980;30.346;2022-07-24T13:24:06;7.97;;;3.95;;
66020;SDS011;52789;59.980;30.346;2022-07-24T13:26:34;5.20;;;3.60;;
66020;SDS011;52789;59.980;30.346;2022-07-24T13:29:02;10.48;;;3.53;;
66020;SDS011;52789;59.980;30.346;2022-07-24T13:31:28;14.95;;;5.53;;
66020;SDS011;52789;59.980;30.346;2022-07-24T13:33:53;14.32;;;4.05;;
66020;SDS011;52789;59.980;30.346;2022-07-24T13:36:19;9.75;;;3.47;;
66020;SDS011;52789;59.980;30.346;2022-07-24T13:38:45;14.98;;;5.18;;
66020;SDS011;52789;59.980;30.346;2022-07-24T13:41:12;19.98;;;5.65;;
66020;SDS011;52789;59.980;30.346;2022-07-24T13:43:38;6.25;;;3.28;;
66020;SDS011;52789;59.980;30.346;2022-07-24T13:46:03;7.97;;;6.15;;
66020;SDS011;52789;59.980;30.346;2022-07-24T13:48:29;8.98;;;5.72;;
66020;SDS011;52789;59.980;30.346;2022-07-24T13:50:55;11.38;;;5.78;;
66020;SDS011;52789;59.980;30.346;2022-07-24T13:53:24;8.27;;;4.00;;
66020;SDS011;52789;59.980;30.346;2022-07-24T13:55:50;9.05;;;4.45;;
66020;SDS011;52789;59.980;30.346;2022-07-24T13:58:15;10.02;;;5.60;;
66020;SDS011;52789;59.980;30.346;2022-07-24T14:00:41;8.93;;;3.83;;
66020;SDS011;52789;59.980;30.346;2022-07-24T14:03:06;7.88;;;3.75;;
66020;SDS011;52789;59.980;30.346;2022-07-24T14:05:32;5.68;;;3.47;;
66020;SDS011;52789;59.980;30.346;2022-07-24T14:07:58;4.53;;;3.30;;
66020;SDS011;52789;59.980;30.346;2022-07-24T14:10:23;8.85;;;3.83;;
66020;SDS011;52789;59.980;30.346;2022-07-24T14:12:49;10.27;;;4.78;;
66020;SDS011;52789;59.980;30.346;2022-07-24T14:15:15;6.53;;;4.28;;
66020;SDS011;52789;59.980;30.346;2022-07-24T14:17:41;7.05;;;4.30;;
66020;SDS011;52789;59.980;30.346;2022-07-24T14:20:09;5.45;;;3.17;;
66020;SDS011;52789;59.980;30.346;2022-07-24T14:22:37;6.07;;;4.00;;
66020;SDS011;52789;59.980;30.346;2022-07-24T14:25:03;7.03;;;4.50;;
66020;SDS011;52789;59.980;30.346;2022-07-24T14:27:31;13.90;;;8.10;;
66020;SDS011;52789;59.980;30.346;2022-07-24T14:30:23;10.60;;;4.15;;
66020;SDS011;52789;59.980;30.346;2022-07-24T14:32:48;8.13;;;3.90;;
66020;SDS011;52789;59.980;30.346;2022-07-24T14:35:14;5.80;;;3.55;;
66020;SDS011;52789;59.980;30.346;2022-07-24T14:37:42;9.40;;;3.80;;
66020;SDS011;52789;59.980;30.346;2022-07-24T14:40:08;6.78;;;3.60;;
66020;SDS011;52789;59.980;30.346;2022-07-24T14:42:34;8.90;;;3.95;;
66020;SDS011;52789;59.980;30.346;2022-07-24T14:45:00;10.45;;;5.47;;
66020;SDS011;52789;59.980;30.346;2022-07-24T14:47:28;9.35;;;4.03;;
66020;SDS011;52789;59.980;30.346;2022-07-24T14:49:54;7.30;;;4.47;;
66020;SDS011;52789;59.980;30.346;2022-07-24T14:52:20;11.57;;;4.10;;
66020;SDS011;52789;59.980;30.346;2022-07-24T14:54:47;8.82;;;5.20;;
66020;SDS011;52789;59.980;30.346;2022-07-24T14:57:13;7.60;;;5.75;;
66020;SDS011;52789;59.980;30.346;2022-07-24T14:59:39;11.20;;;5.60;;
66020;SDS011;52789;59.980;30.346;2022-07-24T15:02:05;6.40;;;4.32;;
66020;SDS011;52789;59.980;30.346;2022-07-24T15:04:32;11.60;;;5.13;;
66020;SDS011;52789;59.980;30.346;2022-07-24T15:06:58;8.52;;;4.65;;
66020;SDS011;52789;59.980;30.346;2022-07-24T15:09:24;10.95;;;4.95;;
66020;SDS011;52789;59.980;30.346;2022-07-24T15:11:49;7.90;;;4.55;;
66020;SDS011;52789;59.980;30.346;2022-07-24T15:14:15;7.78;;;4.50;;
66020;SDS011;52789;59.980;30.346;2022-07-24T15:16:43;10.73;;;5.55;;
66020;SDS011;52789;59.980;30.346;2022-07-24T15:19:08;11.25;;;4.75;;
66020;SDS011;52789;59.980;30.346;2022-07-24T15:21:34;10.95;;;5.13;;
66020;SDS011;52789;59.980;30.346;2022-07-24T15:24:04;7.72;;;4.00;;
66020;SDS011;52789;59.980;30.346;2022-07-24T15:26:31;6.53;;;3.53;;
66020;SDS011;52789;59.980;30.346;2022-07-24T15:28:56;13.88;;;4.78;;
66020;SDS011;52789;59.980;30.346;2022-07-24T15:31:28;14.63;;;4.85;;